sensor_id;sensor_type;location;lat;lon;timestamp;P1;durP1;ratioP1;P2;durP2;ratioP2
12725;SDS011;6427;49.754;6.106;2023-12-14T00:00:50;8.83;;;6.07;;
12725;SDS011;6427;49.754;6.106;2023-12-14T00:03:18;10.05;;;6.78;;
12725;SDS011;6427;49.754;6.106;2023-12-14T00:05:46;8.40;;;6.30;;
12725;SDS011;6427;49.754;6.106;2023-12-14T00:08:14;10.27;;;5.77;;
12725;SDS011;6427;49.754;6.106;2023-12-14T00:10:42;8.23;;;6.00;;
12725;SDS011;6427;49.754;6.106;2023-12-14T00:13:09;8.50;;;6.07;;
12725;SDS011;6427;49.754;6.106;2023-12-14T00:15:37;8.63;;;6.53;;
12725;SDS011;6427;49.754;6.106;2023-12-14T00:18:05;9.17;;;6.77;;
12725;SDS011;6427;49.754;6.106;2023-12-14T00:20:33;11.03;;;6.53;;
12725;SDS011;6427;49.754;6.106;2023-12-14T00:23:00;11.23;;;6.57;;
12725;SDS011;6427;49.754;6.106;2023-12-14T00:25:28;11.27;;;6.50;;
12725;SDS011;6427;49.754;6.106;2023-12-14T00:27:55;9.33;;;6.17;;
12725;SDS011;6427;49.754;6.106;2023-12-14T00:30:23;11.43;;;6.97;;
12725;SDS011;6427;49.754;6.106;2023-12-14T00:32:51;12.15;;;8.70;;
12725;SDS011;6427;49.754;6.106;2023-12-14T00:35:18;10.80;;;6.87;;
12725;SDS011;6427;49.754;6.106;2023-12-14T00:37:47;9.70;;;8.07;;
12725;SDS011;6427;49.754;6.106;2023-12-14T00:40:15;10.23;;;7.47;;
12725;SDS011;6427;49.754;6.106;2023-12-14T00:42:43;11.10;;;7.37;;
12725;SDS011;6427;49.754;6.106;2023-12-14T00:45:11;11.23;;;7.77;;
12725;SDS011;6427;49.754;6.106;2023-12-14T00:47:39;10.13;;;6.87;;
12725;SDS011;6427;49.754;6.106;2023-12-14T00:50:07;11.93;;;6.90;;
12725;SDS011;6427;49.754;6.106;2023-12-14T00:52:35;10.00;;;6.77;;
12725;SDS011;6427;49.754;6.106;2023-12-14T00:55:02;10.97;;;7.27;;
12725;SDS011;6427;49.754;6.106;2023-12-14T00:57:30;9.37;;;6.83;;
12725;SDS011;6427;49.754;6.106;2023-12-14T00:59:57;9.77;;;6.60;;
12725;SDS011;6427;49.754;6.106;2023-12-14T01:02:25;11.13;;;7.30;;
12725;SDS011;6427;49.754;6.106;2023-12-14T01:04:53;11.33;;;7.33;;
12725;SDS011;6427;49.754;6.106;2023-12-14T01:07:21;11.23;;;6.20;;
12725;SDS011;6427;49.754;6.106;2023-12-14T01:09:49;10.43;;;6.77;;
12725;SDS011;6427;49.754;6.106;2023-12-14T01:12:16;8.97;;;6.47;;
12725;SDS011;6427;49.754;6.106;2023-12-14T01:14:44;9.82;;;7.72;;
12725;SDS011;6427;49.754;6.106;2023-12-14T01:17:11;9.77;;;7.00;;
12725;SDS011;6427;49.754;6.106;2023-12-14T01:19:39;10.77;;;7.00;;
12725;SDS011;6427;49.754;6.106;2023-12-14T01:22:07;9.97;;;7.47;;
12725;SDS011;6427;49.754;6.106;2023-12-14T01:24:34;11.18;;;8.68;;
12725;SDS011;6427;49.754;6.106;2023-12-14T01:27:02;11.13;;;7.30;;
12725;SDS011;6427;49.754;6.106;2023-12-14T01:29:29;12.17;;;6.67;;
12725;SDS011;6427;49.754;6.106;2023-12-14T01:31:57;8.10;;;6.70;;
12725;SDS011;6427;49.754;6.106;2023-12-14T01:34:25;10.97;;;7.20;;
12725;SDS011;6427;49.754;6.106;2023-12-14T01:36:52;11.13;;;6.80;;
12725;SDS011;6427;49.754;6.106;2023-12-14T01:39:20;10.67;;;7.10;;
12725;SDS011;6427;49.754;6.106;2023-12-14T01:41:47;10.87;;;7.13;;
12725;SDS011;6427;49.754;6.106;2023-12-14T01:44:15;12.37;;;6.93;;
12725;SDS011;6427;49.754;6.106;2023-12-14T01:46:43;10.70;;;7.30;;
12725;SDS011;6427;49.754;6.106;2023-12-14T01:49:11;11.98;;;8.88;;
12725;SDS011;6427;49.754;6.106;2023-12-14T01:51:38;9.50;;;7.07;;
12725;SDS011;6427;49.754;6.106;2023-12-14T01:54:07;12.27;;;7.17;;
12725;SDS011;6427;49.754;6.106;2023-12-14T01:56:35;10.13;;;7.07;;
12725;SDS011;6427;49.754;6.106;2023-12-14T01:59:03;11.47;;;7.00;;
12725;SDS011;6427;49.754;6.106;2023-12-14T02:01:35;10.20;;;6.83;;
12725;SDS011;6427;49.754;6.106;2023-12-14T02:04:01;10.27;;;6.87;;
12725;SDS011;6427;49.754;6.106;2023-12-14T02:06:28;10.87;;;6.97;;
12725;SDS011;6427;49.754;6.106;2023-12-14T02:08:56;8.97;;;6.53;;
12725;SDS011;6427;49.754;6.106;2023-12-14T02:11:24;11.07;;;6.70;;
12725;SDS011;6427;49.754;6.106;2023-12-14T02:13:52;11.85;;;8.52;;
12725;SDS011;6427;49.754;6.106;2023-12-14T02:16:20;11.43;;;7.73;;
12725;SDS011;6427;49.754;6.106;2023-12-14T02:18:48;12.20;;;7.23;;
12725;SDS011;6427;49.754;6.106;2023-12-14T02:21:16;10.90;;;8.60;;
12725;SDS011;6427;49.754;6.106;2023-12-14T02:23:44;9.53;;;7.40;;
12725;SDS011;6427;49.754;6.106;2023-12-14T02:26:13;12.20;;;8.07;;
12725;SDS011;6427;49.754;6.106;2023-12-14T02:28:41;10.67;;;7.20;;
12725;SDS011;6427;49.754;6.106;2023-12-14T02:31:09;11.20;;;8.80;;
12725;SDS011;6427;49.754;6.106;2023-12-14T02:33:36;11.90;;;8.30;;
12725;SDS011;6427;49.754;6.106;2023-12-14T02:36:04;12.33;;;7.50;;
12725;SDS011;6427;49.754;6.106;2023-12-14T02:38:32;10.33;;;6.93;;
12725;SDS011;6427;49.754;6.106;2023-12-14T02:41:00;11.30;;;7.43;;
12725;SDS011;6427;49.754;6.106;2023-12-14T02:43:27;12.50;;;9.75;;
12725;SDS011;6427;49.754;6.106;2023-12-14T02:45:55;14.23;;;9.85;;
12725;SDS011;6427;49.754;6.106;2023-12-14T02:48:22;10.70;;;7.57;;
12725;SDS011;6427;49.754;6.106;2023-12-14T02:50:50;10.93;;;7.30;;
12725;SDS011;6427;49.754;6.106;2023-12-14T02:53:18;11.50;;;6.80;;
12725;SDS011;6427;49.754;6.106;2023-12-14T02:55:46;11.50;;;7.77;;
12725;SDS011;6427;49.754;6.106;2023-12-14T02:58:14;9.73;;;7.07;;
12725;SDS011;6427;49.754;6.106;2023-12-14T03:00:41;9.13;;;6.63;;
12725;SDS011;6427;49.754;6.106;2023-12-14T03:03:09;8.67;;;6.60;;
12725;SDS011;6427;49.754;6.106;2023-12-14T03:05:36;9.50;;;7.33;;
12725;SDS011;6427;49.754;6.106;2023-12-14T03:08:04;9.73;;;6.60;;
12725;SDS011;6427;49.754;6.106;2023-12-14T03:10:32;9.70;;;6.30;;
12725;SDS011;6427;49.754;6.106;2023-12-14T03:12:59;11.60;;;6.70;;
12725;SDS011;6427;49.754;6.106;2023-12-14T03:15:27;9.77;;;6.60;;
12725;SDS011;6427;49.754;6.106;2023-12-14T03:17:54;9.47;;;6.17;;
12725;SDS011;6427;49.754;6.106;2023-12-14T03:20:22;10.23;;;6.07;;
12725;SDS011;6427;49.754;6.106;2023-12-14T03:22:50;10.65;;;7.80;;
12725;SDS011;6427;49.754;6.106;2023-12-14T03:25:18;9.30;;;6.53;;
12725;SDS011;6427;49.754;6.106;2023-12-14T03:27:45;10.97;;;6.73;;
12725;SDS011;6427;49.754;6.106;2023-12-14T03:30:14;10.45;;;7.90;;
12725;SDS011;6427;49.754;6.106;2023-12-14T03:32:41;10.40;;;6.90;;
12725;SDS011;6427;49.754;6.106;2023-12-14T03:35:10;12.82;;;9.10;;
12725;SDS011;6427;49.754;6.106;2023-12-14T03:37:38;12.87;;;7.63;;
12725;SDS011;6427;49.754;6.106;2023-12-14T03:40:06;12.80;;;7.60;;
12725;SDS011;6427;49.754;6.106;2023-12-14T03:42:33;10.10;;;6.83;;
12725;SDS011;6427;49.754;6.106;2023-12-14T03:45:02;11.40;;;6.90;;
12725;SDS011;6427;49.754;6.106;2023-12-14T03:47:29;7.77;;;5.67;;
12725;SDS011;6427;49.754;6.106;2023-12-14T03:49:57;11.48;;;7.72;;
12725;SDS011;6427;49.754;6.106;2023-12-14T03:52:24;9.27;;;6.97;;
12725;SDS011;6427;49.754;6.106;2023-12-14T03:54:52;9.37;;;6.33;;
12725;SDS011;6427;49.754;6.106;2023-12-14T03:57:20;8.63;;;6.10;;
12725;SDS011;6427;49.754;6.106;2023-12-14T03:59:47;9.10;;;7.32;;
12725;SDS011;6427;49.754;6.106;2023-12-14T04:02:15;8.63;;;6.10;;
12725;SDS011;6427;49.754;6.106;2023-12-14T04:04:42;7.63;;;5.87;;
12725;SDS011;6427;49.754;6.106;2023-12-14T04:07:10;8.27;;;5.87;;
12725;SDS011;6427;49.754;6.106;2023-12-14T04:09:38;8.30;;;5.80;;
12725;SDS011;6427;49.754;6.106;2023-12-14T04:12:05;8.00;;;5.50;;
12725;SDS011;6427;49.754;6.106;2023-12-14T04:14:33;7.93;;;5.37;;
12725;SDS011;6427;49.754;6.106;2023-12-14T04:17:00;8.63;;;5.47;;
12725;SDS011;6427;49.754;6.106;2023-12-14T04:19:28;11.07;;;7.60;;
12725;SDS011;6427;49.754;6.106;2023-12-14T04:21:56;7.53;;;5.47;;
12725;SDS011;6427;49.754;6.106;2023-12-14T04:24:23;12.13;;;8.77;;
12725;SDS011;6427;49.754;6.106;2023-12-14T04:26:52;10.57;;;7.73;;
12725;SDS011;6427;49.754;6.106;2023-12-14T04:29:19;11.63;;;7.40;;
12725;SDS011;6427;49.754;6.106;2023-12-14T04:31:47;10.47;;;6.97;;
12725;SDS011;6427;49.754;6.106;2023-12-14T04:34:14;10.90;;;7.30;;
12725;SDS011;6427;49.754;6.106;2023-12-14T04:36:44;10.47;;;6.87;;
12725;SDS011;6427;49.754;6.106;2023-12-14T04:39:10;8.73;;;6.43;;
12725;SDS011;6427;49.754;6.106;2023-12-14T04:41:38;8.90;;;6.40;;
12725;SDS011;6427;49.754;6.106;2023-12-14T04:44:05;8.97;;;6.30;;
12725;SDS011;6427;49.754;6.106;2023-12-14T04:46:33;10.70;;;6.67;;
12725;SDS011;6427;49.754;6.106;2023-12-14T04:49:01;7.47;;;5.33;;
12725;SDS011;6427;49.754;6.106;2023-12-14T04:51:28;9.57;;;6.85;;
12725;SDS011;6427;49.754;6.106;2023-12-14T04:53:56;8.37;;;5.50;;
12725;SDS011;6427;49.754;6.106;2023-12-14T04:56:23;9.07;;;5.00;;
12725;SDS011;6427;49.754;6.106;2023-12-14T04:58:51;9.90;;;6.10;;
12725;SDS011;6427;49.754;6.106;2023-12-14T05:01:19;7.93;;;5.50;;
12725;SDS011;6427;49.754;6.106;2023-12-14T05:03:46;8.40;;;5.00;;
12725;SDS011;6427;49.754;6.106;2023-12-14T05:06:14;8.90;;;5.95;;
12725;SDS011;6427;49.754;6.106;2023-12-14T05:08:41;9.50;;;5.60;;
12725;SDS011;6427;49.754;6.106;2023-12-14T05:11:09;6.57;;;4.67;;
12725;SDS011;6427;49.754;6.106;2023-12-14T05:13:37;8.30;;;5.23;;
12725;SDS011;6427;49.754;6.106;2023-12-14T05:16:04;10.07;;;5.23;;
12725;SDS011;6427;49.754;6.106;2023-12-14T05:18:32;7.30;;;4.57;;
12725;SDS011;6427;49.754;6.106;2023-12-14T05:21:00;7.47;;;4.50;;
12725;SDS011;6427;49.754;6.106;2023-12-14T05:23:28;9.13;;;6.37;;
12725;SDS011;6427;49.754;6.106;2023-12-14T05:25:55;7.30;;;4.90;;
12725;SDS011;6427;49.754;6.106;2023-12-14T05:28:23;8.07;;;4.80;;
12725;SDS011;6427;49.754;6.106;2023-12-14T05:30:50;9.83;;;5.40;;
12725;SDS011;6427;49.754;6.106;2023-12-14T05:33:18;7.63;;;5.33;;
12725;SDS011;6427;49.754;6.106;2023-12-14T05:35:46;10.20;;;5.50;;
12725;SDS011;6427;49.754;6.106;2023-12-14T05:38:13;10.57;;;6.27;;
12725;SDS011;6427;49.754;6.106;2023-12-14T05:40:41;7.90;;;5.23;;
12725;SDS011;6427;49.754;6.106;2023-12-14T05:43:08;8.20;;;5.40;;
12725;SDS011;6427;49.754;6.106;2023-12-14T05:45:36;9.33;;;5.43;;
12725;SDS011;6427;49.754;6.106;2023-12-14T05:48:04;8.97;;;5.97;;
12725;SDS011;6427;49.754;6.106;2023-12-14T05:50:31;10.10;;;5.77;;
12725;SDS011;6427;49.754;6.106;2023-12-14T05:52:59;9.23;;;5.83;;
12725;SDS011;6427;49.754;6.106;2023-12-14T05:55:26;11.60;;;6.30;;
12725;SDS011;6427;49.754;6.106;2023-12-14T05:57:54;10.83;;;6.70;;
12725;SDS011;6427;49.754;6.106;2023-12-14T06:00:22;11.80;;;6.77;;
12725;SDS011;6427;49.754;6.106;2023-12-14T06:02:50;12.63;;;9.43;;
12725;SDS011;6427;49.754;6.106;2023-12-14T06:05:18;17.48;;;10.80;;
12725;SDS011;6427;49.754;6.106;2023-12-14T06:07:45;13.90;;;8.93;;
12725;SDS011;6427;49.754;6.106;2023-12-14T06:10:13;15.97;;;8.03;;
12725;SDS011;6427;49.754;6.106;2023-12-14T06:12:40;13.00;;;7.57;;
12725;SDS011;6427;49.754;6.106;2023-12-14T06:15:08;12.63;;;7.03;;
12725;SDS011;6427;49.754;6.106;2023-12-14T06:17:37;11.50;;;6.67;;
12725;SDS011;6427;49.754;6.106;2023-12-14T06:20:05;13.07;;;7.43;;
12725;SDS011;6427;49.754;6.106;2023-12-14T06:22:32;10.93;;;6.53;;
12725;SDS011;6427;49.754;6.106;2023-12-14T06:25:00;12.60;;;8.13;;
12725;SDS011;6427;49.754;6.106;2023-12-14T06:27:29;10.03;;;6.53;;
12725;SDS011;6427;49.754;6.106;2023-12-14T06:29:56;13.60;;;6.73;;
12725;SDS011;6427;49.754;6.106;2023-12-14T06:32:24;11.77;;;7.13;;
12725;SDS011;6427;49.754;6.106;2023-12-14T06:34:51;13.80;;;7.87;;
12725;SDS011;6427;49.754;6.106;2023-12-14T06:37:19;13.50;;;8.00;;
12725;SDS011;6427;49.754;6.106;2023-12-14T06:39:47;16.07;;;8.23;;
12725;SDS011;6427;49.754;6.106;2023-12-14T06:42:14;13.23;;;8.13;;
12725;SDS011;6427;49.754;6.106;2023-12-14T06:44:42;13.47;;;7.53;;
12725;SDS011;6427;49.754;6.106;2023-12-14T06:47:09;15.57;;;10.27;;
12725;SDS011;6427;49.754;6.106;2023-12-14T06:49:37;17.80;;;10.40;;
12725;SDS011;6427;49.754;6.106;2023-12-14T06:52:05;14.90;;;9.77;;
12725;SDS011;6427;49.754;6.106;2023-12-14T06:54:33;12.90;;;8.07;;
12725;SDS011;6427;49.754;6.106;2023-12-14T06:57:01;13.33;;;6.90;;
12725;SDS011;6427;49.754;6.106;2023-12-14T06:59:28;13.00;;;7.03;;
12725;SDS011;6427;49.754;6.106;2023-12-14T07:01:56;12.67;;;7.10;;
12725;SDS011;6427;49.754;6.106;2023-12-14T07:04:23;15.73;;;7.77;;
12725;SDS011;6427;49.754;6.106;2023-12-14T07:06:51;11.90;;;7.10;;
12725;SDS011;6427;49.754;6.106;2023-12-14T07:09:19;17.07;;;7.17;;
12725;SDS011;6427;49.754;6.106;2023-12-14T07:11:46;14.20;;;7.17;;
12725;SDS011;6427;49.754;6.106;2023-12-14T07:14:14;11.90;;;6.87;;
12725;SDS011;6427;49.754;6.106;2023-12-14T07:16:41;12.33;;;7.30;;
12725;SDS011;6427;49.754;6.106;2023-12-14T07:19:09;16.57;;;7.17;;
12725;SDS011;6427;49.754;6.106;2023-12-14T07:21:37;13.90;;;8.65;;
12725;SDS011;6427;49.754;6.106;2023-12-14T07:24:04;11.90;;;6.67;;
12725;SDS011;6427;49.754;6.106;2023-12-14T07:26:32;10.27;;;6.47;;
12725;SDS011;6427;49.754;6.106;2023-12-14T07:28:59;11.10;;;6.30;;
12725;SDS011;6427;49.754;6.106;2023-12-14T07:31:28;14.87;;;8.50;;
12725;SDS011;6427;49.754;6.106;2023-12-14T07:33:56;13.20;;;7.33;;
12725;SDS011;6427;49.754;6.106;2023-12-14T07:36:23;13.33;;;6.83;;
12725;SDS011;6427;49.754;6.106;2023-12-14T07:38:51;13.00;;;7.27;;
12725;SDS011;6427;49.754;6.106;2023-12-14T07:41:18;14.00;;;8.07;;
12725;SDS011;6427;49.754;6.106;2023-12-14T07:43:46;12.30;;;6.73;;
12725;SDS011;6427;49.754;6.106;2023-12-14T07:46:13;12.17;;;6.77;;
12725;SDS011;6427;49.754;6.106;2023-12-14T07:48:41;13.37;;;6.93;;
12725;SDS011;6427;49.754;6.106;2023-12-14T07:51:09;13.17;;;7.43;;
12725;SDS011;6427;49.754;6.106;2023-12-14T07:53:36;11.73;;;7.17;;
12725;SDS011;6427;49.754;6.106;2023-12-14T07:56:05;13.40;;;7.57;;
12725;SDS011;6427;49.754;6.106;2023-12-14T07:58:32;11.23;;;6.47;;
12725;SDS011;6427;49.754;6.106;2023-12-14T08:01:00;11.87;;;6.53;;
12725;SDS011;6427;49.754;6.106;2023-12-14T08:03:28;16.33;;;7.23;;
12725;SDS011;6427;49.754;6.106;2023-12-14T08:05:55;11.50;;;6.50;;
12725;SDS011;6427;49.754;6.106;2023-12-14T08:08:23;14.50;;;7.27;;
12725;SDS011;6427;49.754;6.106;2023-12-14T08:10:50;15.03;;;8.93;;
12725;SDS011;6427;49.754;6.106;2023-12-14T08:13:18;18.47;;;9.60;;
12725;SDS011;6427;49.754;6.106;2023-12-14T08:15:46;18.20;;;9.80;;
12725;SDS011;6427;49.754;6.106;2023-12-14T08:18:14;16.23;;;8.43;;
12725;SDS011;6427;49.754;6.106;2023-12-14T08:20:41;14.73;;;7.63;;
12725;SDS011;6427;49.754;6.106;2023-12-14T08:23:09;15.90;;;7.30;;
12725;SDS011;6427;49.754;6.106;2023-12-14T08:25:37;13.30;;;7.63;;
12725;SDS011;6427;49.754;6.106;2023-12-14T08:28:05;14.23;;;8.07;;
12725;SDS011;6427;49.754;6.106;2023-12-14T08:30:32;14.77;;;8.00;;
12725;SDS011;6427;49.754;6.106;2023-12-14T08:33:00;13.93;;;8.20;;
12725;SDS011;6427;49.754;6.106;2023-12-14T08:35:28;18.10;;;9.63;;
12725;SDS011;6427;49.754;6.106;2023-12-14T08:37:55;19.70;;;9.97;;
12725;SDS011;6427;49.754;6.106;2023-12-14T08:40:23;16.07;;;8.77;;
12725;SDS011;6427;49.754;6.106;2023-12-14T08:42:51;17.37;;;8.10;;
12725;SDS011;6427;49.754;6.106;2023-12-14T08:45:18;20.53;;;8.00;;
12725;SDS011;6427;49.754;6.106;2023-12-14T08:47:46;17.77;;;10.27;;
12725;SDS011;6427;49.754;6.106;2023-12-14T08:50:14;16.27;;;8.43;;
12725;SDS011;6427;49.754;6.106;2023-12-14T08:52:42;15.10;;;8.27;;
12725;SDS011;6427;49.754;6.106;2023-12-14T08:55:09;16.77;;;8.80;;
12725;SDS011;6427;49.754;6.106;2023-12-14T08:57:38;13.87;;;7.30;;
12725;SDS011;6427;49.754;6.106;2023-12-14T09:00:05;17.50;;;8.37;;
12725;SDS011;6427;49.754;6.106;2023-12-14T09:02:32;16.25;;;9.23;;
12725;SDS011;6427;49.754;6.106;2023-12-14T09:05:00;17.03;;;8.07;;
12725;SDS011;6427;49.754;6.106;2023-12-14T09:07:28;13.57;;;8.10;;
12725;SDS011;6427;49.754;6.106;2023-12-14T09:09:55;16.15;;;9.23;;
12725;SDS011;6427;49.754;6.106;2023-12-14T09:12:23;14.43;;;7.60;;
12725;SDS011;6427;49.754;6.106;2023-12-14T09:14:50;14.03;;;6.63;;
12725;SDS011;6427;49.754;6.106;2023-12-14T09:17:18;14.53;;;7.03;;
12725;SDS011;6427;49.754;6.106;2023-12-14T09:19:45;16.17;;;7.33;;
12725;SDS011;6427;49.754;6.106;2023-12-14T09:22:13;12.27;;;5.83;;
12725;SDS011;6427;49.754;6.106;2023-12-14T09:24:41;11.23;;;6.13;;
12725;SDS011;6427;49.754;6.106;2023-12-14T09:27:09;10.77;;;6.10;;
12725;SDS011;6427;49.754;6.106;2023-12-14T09:29:37;10.47;;;5.40;;
12725;SDS011;6427;49.754;6.106;2023-12-14T09:32:04;9.30;;;5.10;;
12725;SDS011;6427;49.754;6.106;2023-12-14T09:34:33;9.65;;;5.97;;
12725;SDS011;6427;49.754;6.106;2023-12-14T09:37:00;10.63;;;5.73;;
12725;SDS011;6427;49.754;6.106;2023-12-14T09:39:28;9.97;;;5.43;;
12725;SDS011;6427;49.754;6.106;2023-12-14T09:42:05;10.53;;;4.40;;
12725;SDS011;6427;49.754;6.106;2023-12-14T09:44:32;7.40;;;4.57;;
12725;SDS011;6427;49.754;6.106;2023-12-14T09:47:00;7.47;;;4.15;;
12725;SDS011;6427;49.754;6.106;2023-12-14T09:49:31;7.00;;;3.07;;
12725;SDS011;6427;49.754;6.106;2023-12-14T09:51:59;6.20;;;3.10;;
12725;SDS011;6427;49.754;6.106;2023-12-14T09:54:27;6.18;;;3.75;;
12725;SDS011;6427;49.754;6.106;2023-12-14T09:56:54;5.83;;;2.83;;
12725;SDS011;6427;49.754;6.106;2023-12-14T09:59:22;6.68;;;3.80;;
12725;SDS011;6427;49.754;6.106;2023-12-14T10:01:49;6.97;;;3.60;;
12725;SDS011;6427;49.754;6.106;2023-12-14T10:04:17;5.63;;;3.10;;
12725;SDS011;6427;49.754;6.106;2023-12-14T10:06:45;5.87;;;3.17;;
12725;SDS011;6427;49.754;6.106;2023-12-14T10:09:13;5.20;;;3.20;;
12725;SDS011;6427;49.754;6.106;2023-12-14T10:11:41;5.67;;;2.90;;
12725;SDS011;6427;49.754;6.106;2023-12-14T10:14:18;6.43;;;3.72;;
12725;SDS011;6427;49.754;6.106;2023-12-14T10:16:45;6.23;;;2.87;;
12725;SDS011;6427;49.754;6.106;2023-12-14T10:19:12;6.12;;;3.60;;
12725;SDS011;6427;49.754;6.106;2023-12-14T10:21:40;6.13;;;3.30;;
12725;SDS011;6427;49.754;6.106;2023-12-14T10:24:08;7.57;;;3.80;;
12725;SDS011;6427;49.754;6.106;2023-12-14T10:26:35;6.00;;;3.90;;
12725;SDS011;6427;49.754;6.106;2023-12-14T10:29:03;6.10;;;3.77;;
12725;SDS011;6427;49.754;6.106;2023-12-14T10:31:31;7.13;;;4.10;;
12725;SDS011;6427;49.754;6.106;2023-12-14T10:33:59;8.33;;;3.87;;
12725;SDS011;6427;49.754;6.106;2023-12-14T10:36:26;6.90;;;3.83;;
12725;SDS011;6427;49.754;6.106;2023-12-14T10:38:56;6.40;;;3.50;;
12725;SDS011;6427;49.754;6.106;2023-12-14T10:41:22;6.97;;;3.40;;
12725;SDS011;6427;49.754;6.106;2023-12-14T10:43:50;5.57;;;3.70;;
12725;SDS011;6427;49.754;6.106;2023-12-14T10:46:18;7.40;;;3.63;;
12725;SDS011;6427;49.754;6.106;2023-12-14T10:48:46;10.32;;;4.82;;
12725;SDS011;6427;49.754;6.106;2023-12-14T10:51:13;6.50;;;4.07;;
12725;SDS011;6427;49.754;6.106;2023-12-14T10:53:41;6.82;;;4.62;;
12725;SDS011;6427;49.754;6.106;2023-12-14T10:56:09;6.93;;;4.33;;
12725;SDS011;6427;49.754;6.106;2023-12-14T10:58:51;7.33;;;3.90;;
12725;SDS011;6427;49.754;6.106;2023-12-14T11:01:20;7.00;;;4.43;;
12725;SDS011;6427;49.754;6.106;2023-12-14T11:03:48;8.87;;;4.97;;
12725;SDS011;6427;49.754;6.106;2023-12-14T11:06:26;9.23;;;5.33;;
12725;SDS011;6427;49.754;6.106;2023-12-14T11:08:52;12.43;;;5.60;;
12725;SDS011;6427;49.754;6.106;2023-12-14T11:11:19;11.10;;;6.60;;
12725;SDS011;6427;49.754;6.106;2023-12-14T11:13:49;11.03;;;6.20;;
12725;SDS011;6427;49.754;6.106;2023-12-14T11:16:21;10.00;;;6.50;;
12725;SDS011;6427;49.754;6.106;2023-12-14T11:24:35;9.93;;;6.00;;
12725;SDS011;6427;49.754;6.106;2023-12-14T11:27:08;8.23;;;5.23;;
12725;SDS011;6427;49.754;6.106;2023-12-14T11:29:38;9.53;;;5.77;;
12725;SDS011;6427;49.754;6.106;2023-12-14T11:32:06;8.63;;;4.93;;
12725;SDS011;6427;49.754;6.106;2023-12-14T11:34:34;8.00;;;4.60;;
12725;SDS011;6427;49.754;6.106;2023-12-14T11:37:01;9.37;;;5.47;;
12725;SDS011;6427;49.754;6.106;2023-12-14T11:39:32;8.57;;;5.10;;
12725;SDS011;6427;49.754;6.106;2023-12-14T11:42:03;10.20;;;4.83;;
12725;SDS011;6427;49.754;6.106;2023-12-14T11:44:31;6.83;;;4.43;;
12725;SDS011;6427;49.754;6.106;2023-12-14T11:46:59;6.47;;;4.10;;
12725;SDS011;6427;49.754;6.106;2023-12-14T11:49:26;6.03;;;4.00;;
12725;SDS011;6427;49.754;6.106;2023-12-14T11:51:54;6.73;;;4.17;;
12725;SDS011;6427;49.754;6.106;2023-12-14T11:54:22;6.03;;;3.53;;
12725;SDS011;6427;49.754;6.106;2023-12-14T11:56:50;7.33;;;4.10;;
12725;SDS011;6427;49.754;6.106;2023-12-14T11:59:17;6.20;;;3.70;;
12725;SDS011;6427;49.754;6.106;2023-12-14T12:01:57;5.53;;;3.40;;
12725;SDS011;6427;49.754;6.106;2023-12-14T12:04:21;7.37;;;3.70;;
12725;SDS011;6427;49.754;6.106;2023-12-14T12:06:50;6.30;;;4.03;;
12725;SDS011;6427;49.754;6.106;2023-12-14T12:09:33;5.50;;;3.60;;
12725;SDS011;6427;49.754;6.106;2023-12-14T12:12:00;5.70;;;3.53;;
12725;SDS011;6427;49.754;6.106;2023-12-14T12:14:28;5.67;;;2.90;;
12725;SDS011;6427;49.754;6.106;2023-12-14T12:16:55;5.80;;;4.10;;
12725;SDS011;6427;49.754;6.106;2023-12-14T12:19:23;10.40;;;4.73;;
12725;SDS011;6427;49.754;6.106;2023-12-14T12:21:51;6.47;;;4.00;;
12725;SDS011;6427;49.754;6.106;2023-12-14T12:24:18;5.80;;;3.43;;
12725;SDS011;6427;49.754;6.106;2023-12-14T12:26:47;6.17;;;3.70;;
12725;SDS011;6427;49.754;6.106;2023-12-14T12:29:14;4.87;;;3.50;;
12725;SDS011;6427;49.754;6.106;2023-12-14T12:31:42;6.15;;;3.95;;
12725;SDS011;6427;49.754;6.106;2023-12-14T12:34:09;4.97;;;3.20;;
12725;SDS011;6427;49.754;6.106;2023-12-14T12:36:38;6.87;;;3.33;;
12725;SDS011;6427;49.754;6.106;2023-12-14T12:39:05;5.77;;;3.30;;
12725;SDS011;6427;49.754;6.106;2023-12-14T12:41:34;4.27;;;2.87;;
12725;SDS011;6427;49.754;6.106;2023-12-14T12:44:01;17.30;;;11.47;;
12725;SDS011;6427;49.754;6.106;2023-12-14T12:46:29;10.30;;;5.80;;
12725;SDS011;6427;49.754;6.106;2023-12-14T12:48:56;12.17;;;6.83;;
12725;SDS011;6427;49.754;6.106;2023-12-14T12:51:24;10.27;;;6.03;;
12725;SDS011;6427;49.754;6.106;2023-12-14T12:53:53;5.40;;;3.57;;
12725;SDS011;6427;49.754;6.106;2023-12-14T12:56:21;4.17;;;2.37;;
12725;SDS011;6427;49.754;6.106;2023-12-14T12:58:48;3.57;;;2.37;;
12725;SDS011;6427;49.754;6.106;2023-12-14T13:01:16;6.30;;;3.90;;
12725;SDS011;6427;49.754;6.106;2023-12-14T13:03:44;3.07;;;2.27;;
12725;SDS011;6427;49.754;6.106;2023-12-14T13:06:11;4.20;;;2.10;;
12725;SDS011;6427;49.754;6.106;2023-12-14T13:08:39;4.03;;;2.70;;
12725;SDS011;6427;49.754;6.106;2023-12-14T13:11:06;5.40;;;3.07;;
12725;SDS011;6427;49.754;6.106;2023-12-14T13:13:34;4.97;;;2.93;;
12725;SDS011;6427;49.754;6.106;2023-12-14T13:16:01;4.87;;;3.30;;
12725;SDS011;6427;49.754;6.106;2023-12-14T13:18:29;4.53;;;2.97;;
12725;SDS011;6427;49.754;6.106;2023-12-14T13:20:57;5.47;;;3.60;;
12725;SDS011;6427;49.754;6.106;2023-12-14T13:23:25;3.90;;;2.70;;
12725;SDS011;6427;49.754;6.106;2023-12-14T13:25:53;4.23;;;2.40;;
12725;SDS011;6427;49.754;6.106;2023-12-14T13:28:20;4.47;;;2.90;;
12725;SDS011;6427;49.754;6.106;2023-12-14T13:30:48;4.57;;;2.77;;
12725;SDS011;6427;49.754;6.106;2023-12-14T13:33:15;4.63;;;3.03;;
12725;SDS011;6427;49.754;6.106;2023-12-14T13:35:44;6.27;;;3.40;;
12725;SDS011;6427;49.754;6.106;2023-12-14T13:38:11;4.93;;;3.80;;
12725;SDS011;6427;49.754;6.106;2023-12-14T13:40:39;8.15;;;5.10;;
12725;SDS011;6427;49.754;6.106;2023-12-14T13:43:07;9.13;;;3.80;;
12725;SDS011;6427;49.754;6.106;2023-12-14T13:45:34;7.43;;;3.30;;
12725;SDS011;6427;49.754;6.106;2023-12-14T13:48:03;4.90;;;3.60;;
12725;SDS011;6427;49.754;6.106;2023-12-14T13:50:30;8.17;;;3.90;;
12725;SDS011;6427;49.754;6.106;2023-12-14T13:52:58;5.93;;;3.43;;
12725;SDS011;6427;49.754;6.106;2023-12-14T13:55:25;6.40;;;3.50;;
12725;SDS011;6427;49.754;6.106;2023-12-14T13:57:53;6.33;;;3.43;;
12725;SDS011;6427;49.754;6.106;2023-12-14T14:00:21;6.50;;;3.83;;
12725;SDS011;6427;49.754;6.106;2023-12-14T14:02:48;6.60;;;3.87;;
12725;SDS011;6427;49.754;6.106;2023-12-14T14:05:17;6.07;;;4.03;;
12725;SDS011;6427;49.754;6.106;2023-12-14T14:07:44;5.77;;;3.87;;
12725;SDS011;6427;49.754;6.106;2023-12-14T14:10:13;7.50;;;4.10;;
12725;SDS011;6427;49.754;6.106;2023-12-14T14:12:40;6.63;;;3.93;;
12725;SDS011;6427;49.754;6.106;2023-12-14T14:15:08;8.20;;;5.20;;
12725;SDS011;6427;49.754;6.106;2023-12-14T14:17:35;8.32;;;5.50;;
12725;SDS011;6427;49.754;6.106;2023-12-14T14:20:03;7.23;;;4.30;;
12725;SDS011;6427;49.754;6.106;2023-12-14T14:22:30;7.03;;;3.67;;
12725;SDS011;6427;49.754;6.106;2023-12-14T14:24:58;5.03;;;3.57;;
12725;SDS011;6427;49.754;6.106;2023-12-14T14:27:26;6.10;;;3.73;;
12725;SDS011;6427;49.754;6.106;2023-12-14T14:29:53;8.00;;;3.80;;
12725;SDS011;6427;49.754;6.106;2023-12-14T14:32:21;6.80;;;4.50;;
12725;SDS011;6427;49.754;6.106;2023-12-14T14:34:48;6.60;;;3.73;;
12725;SDS011;6427;49.754;6.106;2023-12-14T14:37:16;5.63;;;3.50;;
12725;SDS011;6427;49.754;6.106;2023-12-14T14:39:44;5.20;;;3.60;;
12725;SDS011;6427;49.754;6.106;2023-12-14T14:42:12;4.80;;;3.10;;
12725;SDS011;6427;49.754;6.106;2023-12-14T14:44:40;5.00;;;3.27;;
12725;SDS011;6427;49.754;6.106;2023-12-14T14:47:07;7.43;;;4.07;;
12725;SDS011;6427;49.754;6.106;2023-12-14T14:49:35;5.53;;;3.37;;
12725;SDS011;6427;49.754;6.106;2023-12-14T14:52:02;7.27;;;3.60;;
12725;SDS011;6427;49.754;6.106;2023-12-14T14:54:30;6.93;;;3.87;;
12725;SDS011;6427;49.754;6.106;2023-12-14T14:56:58;6.63;;;3.93;;
12725;SDS011;6427;49.754;6.106;2023-12-14T14:59:26;8.63;;;3.97;;
12725;SDS011;6427;49.754;6.106;2023-12-14T15:01:54;7.20;;;4.23;;
12725;SDS011;6427;49.754;6.106;2023-12-14T15:04:21;7.07;;;3.77;;